Time;durP1;ratioP1;P1;durP2;ratioP2;P2;SDS_P1;SDS_P2;PMS_P1;PMS_P2;Temp;Humidity;BMP_temperature;BMP_pressure;BME280_temperature;BME280_humidity;BME280_pressure;Samples;Min_cycle;Max_cycle;Signal;HPM_P1;HPM_P2
2024/03/30 00:13:43;;;;;;;13.50;5.70;;;;;;;14.35;63.79;99202.71;668012;1274;140515;-80
2024/03/30 00:28:47;;;;;;;10.00;5.60;;;;;;;14.14;64.48;99207.64;667802;1265;138801;-81
2024/03/30 00:43:50;;;;;;;12.50;4.90;;;;;;;14.03;65.72;99199.97;668272;1278;139684;-81
2024/03/30 00:58:53;;;;;;;17.30;5.50;;;;;;;13.99;65.68;99200.58;668347;1263;139309;-82
2024/03/30 01:14:02;;;;;;;14.50;6.10;;;;;;;13.75;66.49;99208.70;668369;1275;138709;-81
2024/03/30 01:29:08;;;;;;;11.10;4.90;;;;;;;13.47;67.44;99210.17;670461;1273;139680;-82
2024/03/30 01:44:12;;;;;;;24.50;9.70;;;;;;;13.35;70.11;99235.80;672555;1264;139421;-80
2024/03/30 01:59:15;;;;;;;10.60;5.30;;;;;;;13.32;69.05;99246.16;673090;1265;139631;-81
2024/03/30 02:14:18;;;;;;;11.60;5.60;;;;;;;13.21;70.12;99232.71;673881;1265;139020;-81
2024/03/30 02:29:27;;;;;;;45.70;20.10;;;;;;;13.05;71.43;99240.45;674835;1265;138868;-82
2024/03/30 02:44:30;;;;;;;14.10;7.50;;;;;;;13.29;70.16;99244.56;673024;1266;139689;-81
2024/03/30 02:59:33;;;;;;;12.70;5.70;;;;;;;13.16;69.72;99253.98;672200;1264;138960;-81
2024/03/30 03:14:36;;;;;;;20.10;9.70;;;;;;;13.17;70.06;99261.55;670998;1265;139499;-81
2024/03/30 03:29:43;;;;;;;14.60;6.10;;;;;;;13.01;71.11;99261.14;672496;1265;139473;-80
2024/03/30 03:44:53;;;;;;;16.60;6.40;;;;;;;12.97;72.20;99261.20;673810;1265;139686;-81
2024/03/30 03:59:56;;;;;;;18.80;8.10;;;;;;;12.87;72.13;99282.09;672288;1265;138960;-80
2024/03/30 04:14:59;;;;;;;13.40;6.40;;;;;;;12.71;71.44;99299.85;669019;1266;139558;-80
2024/03/30 04:30:04;;;;;;;13.50;6.40;;;;;;;12.31;71.98;99293.27;668533;1265;138840;-79
2024/03/30 04:45:07;;;;;;;15.20;7.20;;;;;;;11.81;73.54;99293.54;667265;1264;139387;-81
2024/03/30 05:00:10;;;;;;;17.30;7.50;;;;;;;11.42;75.02;99301.84;669350;1264;139960;-81
2024/03/30 05:15:13;;;;;;;18.60;9.90;;;;;;;11.37;76.20;99304.89;667634;1264;140440;-81
2024/03/30 05:30:18;;;;;;;21.90;12.40;;;;;;;11.56;76.83;99310.17;668076;1266;139880;-81
2024/03/30 05:45:21;;;;;;;25.70;11.40;;;;;;;11.86;77.45;99300.71;667702;1267;139510;-80
2024/03/30 06:00:25;;;;;;;16.10;9.00;;;;;;;12.22;78.30;99298.02;667661;1267;140168;-81
2024/03/30 06:15:28;;;;;;;42.40;18.40;;;;;;;12.78;78.49;99307.75;668474;1260;139570;-81
2024/03/30 06:30:31;;;;;;;33.00;19.00;;;;;;;13.41;78.66;99318.36;670191;1276;139905;-80
2024/03/30 06:45:35;;;;;;;295.90;99.60;;;;;;;14.45;78.26;99327.93;671646;1260;139373;-81
2024/03/30 07:00:38;;;;;;;21.80;9.60;;;;;;;18.85;73.97;99334.42;670143;1263;140321;-80
2024/03/30 07:15:41;;;;;;;53.30;21.40;;;;;;;22.56;64.50;99345.69;675933;1267;140275;-83
2024/03/30 07:30:44;;;;;;;41.10;19.30;;;;;;;22.94;60.50;99337.17;674184;1267;138956;-82
2024/03/30 07:45:47;;;;;;;18.00;9.20;;;;;;;22.32;60.44;99336.33;671759;1264;138247;-81
2024/03/30 08:00:50;;;;;;;26.50;18.60;;;;;;;22.65;59.73;99344.33;670219;1261;138401;-80
2024/03/30 08:15:53;;;;;;;20.50;10.80;;;;;;;23.06;58.37;99354.56;670465;1266;139166;-81
2024/03/30 08:30:56;;;;;;;41.30;22.70;;;;;;;22.28;58.81;99363.16;671800;1265;139484;-80
2024/03/30 08:46:03;;;;;;;17.20;8.00;;;;;;;23.45;59.51;99356.80;670775;1265;138269;-81
2024/03/30 09:01:06;;;;;;;16.20;8.10;;;;;;;24.04;58.39;99354.04;670570;1265;138820;-81
2024/03/30 09:16:09;;;;;;;14.20;8.00;;;;;;;23.92;57.98;99352.38;672146;1265;139210;-80
2024/03/30 11:10:19;;;;;;;12.20;5.70;;;;;;;25.12;54.82;99278.86;654819;1304;544831;-82
2024/03/30 11:25:30;;;;;;;13.20;5.20;;;;;;;25.82;54.23;99267.48;677997;1267;139661;-79
2024/03/30 11:41:03;;;;;;;10.20;5.00;;;;;;;25.80;54.24;99255.07;671116;1265;138870;-80
2024/03/30 11:56:09;;;;;;;8.30;4.60;;;;;;;24.99;54.46;99245.59;670998;1266;137967;-79
2024/03/30 12:11:14;;;;;;;11.20;5.00;;;;;;;24.68;55.50;99246.86;670431;1259;138225;-79
2024/03/30 12:26:18;;;;;;;8.60;4.10;;;;;;;25.15;55.75;99243.95;672966;1259;138862;-79
2024/03/30 12:41:22;;;;;;;12.00;5.00;;;;;;;25.32;54.65;99239.25;670578;1262;138068;-79
2024/03/30 12:56:26;;;;;;;8.80;3.90;;;;;;;24.99;55.08;99228.66;669844;1259;138553;-79
2024/03/30 14:23:55;;;;;;;28.00;9.40;;;;;;;25.90;49.94;99129.41;645105;1304;545105;-79
2024/03/30 14:55:13;;;;;;;323.20;144.70;;;;;;;25.62;50.57;99125.73;653645;1298;544932;-79
2024/03/30 15:10:16;;;;;;;28.90;11.70;;;;;;;25.58;51.32;99104.92;673040;1272;139598;-79
2024/03/30 15:25:19;;;;;;;15.10;6.00;;;;;;;25.47;52.38;99103.87;671768;1272;139558;-81
2024/03/30 16:09:11;;;;;;;15.30;5.10;;;;;;;24.51;54.37;99105.01;648414;1298;545890;-79
2024/03/30 16:24:14;;;;;;;17.70;4.50;;;;;;;23.90;55.01;99112.52;666701;1278;138016;-81
2024/03/30 16:39:19;;;;;;;42.80;25.80;;;;;;;23.19;56.75;99116.56;665498;1278;138386;-81
2024/03/30 16:54:22;;;;;;;60.80;25.10;;;;;;;22.34;58.23;99112.30;662702;1276;138638;-80
2024/03/30 17:09:26;;;;;;;43.50;21.70;;;;;;;21.28;60.26;99103.69;663216;1275;139874;-80
2024/03/30 17:24:31;;;;;;;52.40;19.00;;;;;;;20.37;62.20;99102.05;664262;1289;139469;-80
2024/03/30 17:39:36;;;;;;;111.70;41.40;;;;;;;19.58;64.01;99100.39;666269;1278;139125;-80
2024/03/30 17:54:41;;;;;;;133.80;54.00;;;;;;;19.24;64.86;99103.70;664630;1277;140157;-80
2024/03/30 18:09:45;;;;;;;123.00;69.60;;;;;;;18.89;65.31;99109.14;663988;1272;138225;-79
2024/03/30 18:24:48;;;;;;;69.90;46.40;;;;;;;18.73;66.16;99106.41;664978;1278;138985;-81
2024/03/30 18:39:51;;;;;;;99.80;40.10;;;;;;;18.62;66.03;99112.21;664759;1278;138331;-78
2024/03/30 18:54:56;;;;;;;40.40;18.80;;;;;;;18.61;66.45;99112.88;664011;1275;139267;-80
2024/03/30 19:10:01;;;;;;;35.90;16.90;;;;;;;18.63;66.75;99106.98;662952;1276;139723;-81
2024/03/30 19:25:05;;;;;;;53.90;20.80;;;;;;;18.54;66.29;99112.15;662901;1275;138424;-80
2024/03/30 19:40:08;;;;;;;45.70;17.90;;;;;;;18.37;67.22;99104.40;666332;1277;139220;-79
2024/03/30 19:55:12;;;;;;;31.50;13.70;;;;;;;18.35;67.56;99098.48;677051;1265;140011;-80
2024/03/30 20:10:16;;;;;;;23.00;11.10;;;;;;;18.15;68.48;99087.52;666505;1280;140107;-80
2024/03/30 20:25:22;;;;;;;37.00;10.70;;;;;;;18.04;68.63;99078.43;666890;1267;140460;-79
2024/03/30 20:40:26;;;;;;;32.00;11.00;;;;;;;17.99;69.24;99085.03;673809;1268;139164;-80
2024/03/30 20:55:29;;;;;;;25.30;8.50;;;;;;;18.03;70.54;99089.98;666244;1268;139437;-79
2024/03/30 21:10:33;;;;;;;30.80;10.10;;;;;;;18.18;70.58;99089.98;665257;1269;139828;-80
2024/03/30 21:25:36;;;;;;;24.80;10.00;;;;;;;18.06;69.84;99085.27;666134;1265;139239;-80
2024/03/30 21:40:39;;;;;;;32.10;7.90;;;;;;;17.74;70.02;99077.21;666482;1268;139547;-80
2024/03/30 21:55:49;;;;;;;40.10;10.00;;;;;;;17.94;68.18;99078.17;666373;1278;139853;-80
2024/03/30 22:10:53;;;;;;;36.10;8.40;;;;;;;18.34;65.26;99075.34;665884;1279;139194;-79
2024/03/30 22:25:58;;;;;;;44.30;11.10;;;;;;;18.42;63.55;99081.45;668344;1267;138844;-81
2024/03/30 22:41:02;;;;;;;45.80;11.10;;;;;;;18.42;62.89;99073.64;670543;1268;138919;-82
2024/03/30 22:56:09;;;;;;;50.70;11.20;;;;;;;18.26;62.66;99063.88;675948;1264;139353;-81
2024/03/30 23:11:12;;;;;;;58.80;13.10;;;;;;;18.12;62.69;99055.86;666701;1266;138303;-81
2024/03/30 23:26:15;;;;;;;64.50;16.60;;;;;;;17.89;62.77;99048.16;665877;1267;138485;-81
2024/03/30 23:41:18;;;;;;;50.30;11.10;;;;;;;17.42;63.50;99032.08;675784;1264;138580;-79
2024/03/30 23:56:21;;;;;;;50.20;10.70;;;;;;;17.11;64.02;99016.41;667910;1278;138190;-81
